Time;durP1;ratioP1;P1;durP2;ratioP2;P2;SDS_P1;SDS_P2;PMS_P1;PMS_P2;Temp;Humidity;BMP_temperature;BMP_pressure;BME280_temperature;BME280_humidity;BME280_pressure;Samples;Min_cycle;Max_cycle;Signal;HPM_P1;HPM_P2
2023/03/19 00:01:48;;;;;;;8.43;3.37;;;;;;;;;;5032987;28;20457;-78
2023/03/19 00:04:16;;;;;;;9.93;3.03;;;;;;;;;;5016248;28;20026;-78
2023/03/19 00:06:42;;;;;;;8.47;3.67;;;;;;;;;;5021099;28;20022;-78
2023/03/19 00:09:08;;;;;;;5.53;2.87;;;;;;;;;;5026639;28;20340;-78
2023/03/19 00:11:34;;;;;;;12.50;4.57;;;;;;;;;;5031887;28;20083;-79
2023/03/19 00:14:00;;;;;;;6.83;4.13;;;;;;;;;;5034227;28;20017;-77
2023/03/19 00:16:26;;;;;;;4.40;3.30;;;;;;;;;;5024648;28;20022;-79
2023/03/19 00:18:52;;;;;;;10.37;4.07;;;;;;;;;;5021406;28;20017;-78
2023/03/19 00:21:18;;;;;;;12.17;3.80;;;;;;;;;;5028290;28;20014;-79
2023/03/19 00:23:44;;;;;;;8.50;4.30;;;;;;;;;;5020440;28;20017;-78
2023/03/19 00:26:10;;;;;;;9.07;4.00;;;;;;;;;;5033963;28;20334;-79
2023/03/19 00:28:36;;;;;;;8.83;3.77;;;;;;;;;;5025414;28;20017;-78
2023/03/19 00:31:06;;;;;;;6.20;3.30;;;;;;;;;;5033215;28;20454;-77
2023/03/19 00:33:32;;;;;;;5.40;3.37;;;;;;;;;;5030190;28;20363;-79
2023/03/19 00:36:00;;;;;;;10.50;3.83;;;;;;;;;;5029086;28;20033;-78
2023/03/19 00:38:27;;;;;;;7.97;3.40;;;;;;;;;;5008304;28;20049;-78
2023/03/19 00:40:53;;;;;;;9.20;3.93;;;;;;;;;;5019860;28;20021;-79
2023/03/19 00:43:19;;;;;;;10.80;5.07;;;;;;;;;;5014799;28;20029;-78
2023/03/19 00:45:45;;;;;;;9.83;6.23;;;;;;;;;;5030187;28;20027;-78
2023/03/19 00:48:11;;;;;;;13.57;6.20;;;;;;;;;;5010785;28;20052;-79
2023/03/19 00:50:37;;;;;;;13.13;5.87;;;;;;;;;;5007474;28;20180;-76
2023/03/19 00:53:03;;;;;;;9.23;4.73;;;;;;;;;;5028574;28;20144;-78
2023/03/19 00:55:29;;;;;;;6.83;4.00;;;;;;;;;;5009843;28;20061;-78
2023/03/19 00:57:55;;;;;;;13.43;4.57;;;;;;;;;;5023433;28;20064;-76
2023/03/19 01:00:23;;;;;;;11.90;4.70;;;;;;;;;;5025478;28;20033;-78
2023/03/19 01:02:49;;;;;;;12.60;6.40;;;;;;;;;;5010496;28;20047;-76
2023/03/19 01:05:15;;;;;;;8.83;4.93;;;;;;;;;;5029581;28;20088;-78
2023/03/19 01:07:42;;;;;;;14.23;6.20;;;;;;;;;;5016754;28;20124;-79
2023/03/19 01:10:08;;;;;;;16.17;6.67;;;;;;;;;;5017351;28;20050;-77
2023/03/19 01:12:34;;;;;;;14.60;6.77;;;;;;;;;;5018146;28;20034;-78
2023/03/19 01:15:03;;;;;;;14.47;7.10;;;;;;;;;;5016307;28;20030;-77
2023/03/19 01:17:29;;;;;;;13.63;6.87;;;;;;;;;;5016514;28;20362;-77
2023/03/19 01:19:57;;;;;;;17.23;7.50;;;;;;;;;;5009580;28;21658;-77
2023/03/19 01:22:23;;;;;;;10.23;5.53;;;;;;;;;;5012415;28;20037;-76
2023/03/19 01:24:49;;;;;;;14.50;7.43;;;;;;;;;;5028733;28;20151;-76
2023/03/19 01:27:15;;;;;;;11.63;6.40;;;;;;;;;;5008605;28;20033;-77
2023/03/19 01:29:41;;;;;;;12.80;6.13;;;;;;;;;;5026453;28;20033;-77
2023/03/19 01:32:07;;;;;;;12.53;6.63;;;;;;;;;;5025292;28;20044;-78
2023/03/19 01:34:33;;;;;;;11.03;6.13;;;;;;;;;;5014162;28;20045;-77
2023/03/19 01:37:01;;;;;;;12.50;6.27;;;;;;;;;;5027573;28;20033;-76
2023/03/19 01:39:27;;;;;;;10.23;5.73;;;;;;;;;;5014877;28;20076;-77
2023/03/19 01:41:53;;;;;;;14.07;5.87;;;;;;;;;;5028191;28;20033;-77
2023/03/19 01:44:30;;;;;;;11.17;5.07;;;;;;;;;;5013147;28;20049;-77
2023/03/19 01:46:56;;;;;;;12.53;6.20;;;;;;;;;;5013439;28;20237;-78
2023/03/19 01:49:23;;;;;;;11.97;6.07;;;;;;;;;;5026787;28;20025;-77
2023/03/19 01:51:49;;;;;;;17.13;6.33;;;;;;;;;;5013637;28;20022;-78
2023/03/19 01:54:18;;;;;;;14.30;6.10;;;;;;;;;;5014177;28;20042;-77
2023/03/19 01:56:46;;;;;;;14.00;5.10;;;;;;;;;;5014578;28;20029;-78
2023/03/19 01:59:16;;;;;;;12.77;6.00;;;;;;;;;;5028350;28;20037;-76
2023/03/19 02:01:49;;;;;;;10.90;5.83;;;;;;;;;;5011968;28;20043;-78
2023/03/19 02:04:15;;;;;;;11.05;5.38;;;;;;;;;;5011552;28;20107;-78
2023/03/19 02:06:41;;;;;;;8.97;5.27;;;;;;;;;;5012904;28;20574;-78
2023/03/19 02:09:08;;;;;;;15.47;5.47;;;;;;;;;;5023821;28;20108;-77
2023/03/19 02:11:35;;;;;;;12.43;5.73;;;;;;;;;;5025734;28;20041;-77
2023/03/19 02:14:01;;;;;;;14.00;6.27;;;;;;;;;;5024653;28;20021;-77
2023/03/19 02:16:27;;;;;;;11.43;5.03;;;;;;;;;;5026509;28;20087;-78
2023/03/19 02:18:54;;;;;;;10.10;5.00;;;;;;;;;;5023518;28;20480;-78
2023/03/19 02:21:20;;;;;;;12.27;5.37;;;;;;;;;;5007847;28;20509;-76
2023/03/19 02:23:53;;;;;;;7.77;4.77;;;;;;;;;;5014801;28;20167;-77
2023/03/19 02:26:20;;;;;;;8.45;4.65;;;;;;;;;;5024289;28;20051;-78
2023/03/19 02:28:50;;;;;;;7.73;4.20;;;;;;;;;;5027343;28;20065;-77
2023/03/19 02:31:17;;;;;;;11.10;5.03;;;;;;;;;;5026564;28;20514;-77
2023/03/19 02:33:43;;;;;;;10.37;4.53;;;;;;;;;;5025647;28;20040;-78
2023/03/19 02:36:14;;;;;;;9.20;4.27;;;;;;;;;;5011815;28;20032;-77
2023/03/19 02:38:42;;;;;;;10.43;4.07;;;;;;;;;;5025062;28;20157;-78
2023/03/19 02:41:08;;;;;;;12.57;4.30;;;;;;;;;;5012619;28;20091;-78
2023/03/19 02:43:35;;;;;;;7.47;4.57;;;;;;;;;;5024960;28;20036;-77
2023/03/19 02:46:02;;;;;;;8.00;4.10;;;;;;;;;;5011969;28;20056;-78
2023/03/19 02:48:29;;;;;;;7.23;3.67;;;;;;;;;;5009761;28;20040;-77
2023/03/19 02:50:55;;;;;;;6.47;3.20;;;;;;;;;;5009652;28;20064;-79
2023/03/19 02:53:22;;;;;;;7.50;3.20;;;;;;;;;;5014112;28;20120;-79
2023/03/19 02:55:48;;;;;;;7.73;3.27;;;;;;;;;;5017550;28;20030;-78
2023/03/19 02:58:14;;;;;;;7.17;3.37;;;;;;;;;;5034353;28;20037;-79
2023/03/19 03:00:40;;;;;;;7.17;3.23;;;;;;;;;;5017125;28;20383;-79
2023/03/19 03:03:07;;;;;;;6.73;3.37;;;;;;;;;;5027335;28;20474;-78
2023/03/19 03:05:33;;;;;;;9.87;3.70;;;;;;;;;;5021987;28;20022;-77
2023/03/19 03:07:59;;;;;;;9.30;3.33;;;;;;;;;;5033397;28;20033;-79
2023/03/19 03:10:25;;;;;;;7.20;3.63;;;;;;;;;;5010045;28;20044;-78
2023/03/19 03:12:51;;;;;;;9.30;3.67;;;;;;;;;;5010871;28;20115;-78
2023/03/19 03:15:17;;;;;;;8.73;3.70;;;;;;;;;;5030344;28;20068;-78
2023/03/19 03:17:44;;;;;;;7.27;3.07;;;;;;;;;;5025294;28;20372;-78
2023/03/19 03:20:11;;;;;;;7.20;3.03;;;;;;;;;;5017165;28;20124;-78
2023/03/19 03:22:38;;;;;;;5.13;2.70;;;;;;;;;;5023460;28;20029;-79
2023/03/19 03:25:04;;;;;;;4.77;2.50;;;;;;;;;;5021499;28;20030;-78
2023/03/19 03:27:31;;;;;;;4.97;2.37;;;;;;;;;;5017148;28;20033;-78
2023/03/19 03:29:57;;;;;;;5.67;2.67;;;;;;;;;;4998913;28;20372;-79
2023/03/19 03:32:23;;;;;;;9.93;2.63;;;;;;;;;;5015843;28;20033;-78
2023/03/19 03:34:49;;;;;;;6.50;2.90;;;;;;;;;;5016971;28;20025;-78
2023/03/19 03:37:16;;;;;;;6.53;2.93;;;;;;;;;;5029484;28;20026;-78
2023/03/19 03:39:42;;;;;;;5.43;2.23;;;;;;;;;;5028891;28;20434;-78
2023/03/19 03:42:08;;;;;;;8.67;2.33;;;;;;;;;;5007101;28;20026;-79
2023/03/19 03:44:35;;;;;;;6.10;2.90;;;;;;;;;;5011486;28;20052;-79
2023/03/19 03:47:03;;;;;;;7.23;2.73;;;;;;;;;;5004798;28;20369;-79
2023/03/19 03:49:31;;;;;;;4.80;2.17;;;;;;;;;;5002850;28;20026;-77
2023/03/19 03:51:57;;;;;;;6.83;2.40;;;;;;;;;;4980798;28;1094953;-78
2023/03/19 03:54:23;;;;;;;6.67;2.63;;;;;;;;;;5032242;28;20025;-78
2023/03/19 03:56:50;;;;;;;4.50;2.30;;;;;;;;;;4999776;28;20030;-78
2023/03/19 03:59:18;;;;;;;5.10;2.60;;;;;;;;;;5015613;28;20048;-79
2023/03/19 04:01:44;;;;;;;6.37;2.43;;;;;;;;;;5032837;28;20608;-78
2023/03/19 04:04:10;;;;;;;5.77;2.70;;;;;;;;;;5025675;28;20037;-77
2023/03/19 04:06:36;;;;;;;7.97;2.90;;;;;;;;;;5029728;28;20030;-78
2023/03/19 04:09:02;;;;;;;5.27;2.67;;;;;;;;;;5039549;28;20450;-78
2023/03/19 04:11:28;;;;;;;6.40;2.93;;;;;;;;;;5032126;28;20025;-77
2023/03/19 04:13:56;;;;;;;4.87;2.63;;;;;;;;;;5024918;28;20022;-78
2023/03/19 04:16:22;;;;;;;6.97;2.90;;;;;;;;;;5019062;28;20117;-79
2023/03/19 04:18:48;;;;;;;4.57;2.70;;;;;;;;;;5006757;28;20032;-79
2023/03/19 04:21:14;;;;;;;5.57;2.57;;;;;;;;;;5033480;28;20025;-78
2023/03/19 04:23:40;;;;;;;8.67;2.60;;;;;;;;;;5035091;28;20026;-78
2023/03/19 04:26:07;;;;;;;8.00;2.40;;;;;;;;;;5026004;28;20022;-78
2023/03/19 04:28:33;;;;;;;5.93;2.23;;;;;;;;;;5037326;28;20044;-79
2023/03/19 04:31:04;;;;;;;8.33;2.90;;;;;;;;;;5036775;28;20120;-78
2023/03/19 04:33:30;;;;;;;5.40;2.10;;;;;;;;;;5037239;28;20043;-77
2023/03/19 04:35:56;;;;;;;3.43;1.87;;;;;;;;;;5026852;28;20018;-78
2023/03/19 04:38:26;;;;;;;6.10;2.43;;;;;;;;;;5011615;28;20411;-77
2023/03/19 04:40:52;;;;;;;6.10;2.40;;;;;;;;;;5034450;28;20324;-77
2023/03/19 04:43:18;;;;;;;4.33;2.43;;;;;;;;;;5024848;28;20112;-78
2023/03/19 04:45:45;;;;;;;4.67;1.70;;;;;;;;;;5019419;28;20048;-79
2023/03/19 04:48:13;;;;;;;4.80;1.50;;;;;;;;;;5014153;28;20044;-78
2023/03/19 04:50:41;;;;;;;6.27;1.93;;;;;;;;;;5010268;28;20037;-79
2023/03/19 04:53:07;;;;;;;5.30;2.30;;;;;;;;;;5009967;28;20038;-76
2023/03/19 04:55:33;;;;;;;3.77;1.80;;;;;;;;;;5015229;28;20025;-79
2023/03/19 04:58:00;;;;;;;4.77;1.63;;;;;;;;;;5020489;28;20045;-78
2023/03/19 05:00:26;;;;;;;5.77;1.80;;;;;;;;;;5031838;28;20034;-79
2023/03/19 05:02:52;;;;;;;4.17;1.90;;;;;;;;;;5034689;28;20022;-77
2023/03/19 05:05:18;;;;;;;3.07;1.47;;;;;;;;;;5028168;28;20171;-78
2023/03/19 05:07:45;;;;;;;4.37;1.60;;;;;;;;;;5032440;28;20037;-78
2023/03/19 05:10:16;;;;;;;4.53;2.00;;;;;;;;;;5013464;28;20034;-78
2023/03/19 05:12:41;;;;;;;6.40;1.80;;;;;;;;;;5027387;28;20439;-78
2023/03/19 05:15:08;;;;;;;7.67;2.10;;;;;;;;;;5026143;28;20033;-79
2023/03/19 05:17:34;;;;;;;4.27;1.90;;;;;;;;;;5029718;28;20078;-78
2023/03/19 05:20:01;;;;;;;6.93;1.87;;;;;;;;;;5037596;28;20040;-78
2023/03/19 05:22:29;;;;;;;2.83;1.47;;;;;;;;;;5016611;28;20025;-78
2023/03/19 05:24:56;;;;;;;2.90;1.50;;;;;;;;;;5019502;28;20037;-78
2023/03/19 05:27:24;;;;;;;5.93;1.57;;;;;;;;;;5018012;28;20037;-79
2023/03/19 05:29:50;;;;;;;4.50;1.60;;;;;;;;;;5029658;28;20029;-78
2023/03/19 05:32:19;;;;;;;3.47;1.60;;;;;;;;;;5010535;28;20033;-79
2023/03/19 05:34:45;;;;;;;6.37;2.00;;;;;;;;;;5017884;28;20017;-76
2023/03/19 05:37:11;;;;;;;3.57;1.50;;;;;;;;;;5030830;28;20033;-79
2023/03/19 05:39:37;;;;;;;2.60;1.13;;;;;;;;;;5018708;28;20373;-78
2023/03/19 05:42:03;;;;;;;2.13;1.53;;;;;;;;;;5016129;28;20033;-78
2023/03/19 05:44:32;;;;;;;2.57;1.60;;;;;;;;;;5013306;28;20108;-78
2023/03/19 05:47:00;;;;;;;4.47;1.73;;;;;;;;;;5007605;28;20445;-79
2023/03/19 05:49:26;;;;;;;2.03;1.47;;;;;;;;;;5008496;28;20033;-78
2023/03/19 05:51:52;;;;;;;4.53;1.70;;;;;;;;;;5035158;28;20041;-78
2023/03/19 05:54:18;;;;;;;5.23;1.80;;;;;;;;;;5039687;28;20045;-79
2023/03/19 05:56:44;;;;;;;6.27;1.70;;;;;;;;;;5031885;28;20030;-79
2023/03/19 05:59:10;;;;;;;3.37;1.57;;;;;;;;;;5034581;28;20040;-79
2023/03/19 06:01:36;;;;;;;4.03;1.53;;;;;;;;;;5040294;28;20028;-77
2023/03/19 06:04:02;;;;;;;6.33;2.20;;;;;;;;;;5018409;28;20358;-77
2023/03/19 06:06:28;;;;;;;4.80;1.70;;;;;;;;;;5001384;28;20439;-77
2023/03/19 06:08:54;;;;;;;5.60;2.20;;;;;;;;;;5014145;28;20072;-79
2023/03/19 06:11:20;;;;;;;5.87;2.10;;;;;;;;;;5028709;28;20036;-78
2023/03/19 06:13:49;;;;;;;2.43;1.50;;;;;;;;;;5035438;28;20506;-78
2023/03/19 06:16:15;;;;;;;6.13;1.97;;;;;;;;;;5019042;28;20029;-79
2023/03/19 06:18:41;;;;;;;4.97;2.03;;;;;;;;;;5015851;28;20034;-78
2023/03/19 06:21:07;;;;;;;4.30;1.70;;;;;;;;;;5005012;28;20064;-79
2023/03/19 06:23:33;;;;;;;5.63;1.80;;;;;;;;;;5018952;28;20065;-78
2023/03/19 06:25:59;;;;;;;5.53;1.80;;;;;;;;;;5035659;28;20017;-78
2023/03/19 06:28:28;;;;;;;12.57;2.50;;;;;;;;;;5018580;28;20098;-78
2023/03/19 06:30:54;;;;;;;4.70;1.60;;;;;;;;;;5018229;28;20037;-78
2023/03/19 06:33:21;;;;;;;2.60;1.67;;;;;;;;;;5034211;28;20036;-78
2023/03/19 06:35:48;;;;;;;4.03;1.70;;;;;;;;;;5029795;28;20025;-78
2023/03/19 06:38:14;;;;;;;2.63;1.47;;;;;;;;;;5030769;28;20022;-79
2023/03/19 06:40:39;;;;;;;4.07;2.00;;;;;;;;;;5038066;28;20473;-78
2023/03/19 06:43:06;;;;;;;3.27;1.83;;;;;;;;;;5022673;28;20044;-79
2023/03/19 06:45:32;;;;;;;4.33;1.40;;;;;;;;;;5010312;28;20033;-78
2023/03/19 06:47:58;;;;;;;2.73;1.33;;;;;;;;;;5015610;28;20358;-79
2023/03/19 06:50:24;;;;;;;2.10;1.27;;;;;;;;;;5022346;28;20026;-77
2023/03/19 06:52:50;;;;;;;2.87;1.40;;;;;;;;;;5025486;28;20029;-78
2023/03/19 06:55:19;;;;;;;4.00;1.30;;;;;;;;;;5023781;28;20040;-79
2023/03/19 06:57:48;;;;;;;3.17;1.30;;;;;;;;;;5025940;28;20030;-76
2023/03/19 07:00:14;;;;;;;3.90;1.40;;;;;;;;;;5023416;28;20037;-79
2023/03/19 07:02:40;;;;;;;4.30;1.30;;;;;;;;;;5011481;28;20033;-76
2023/03/19 07:05:06;;;;;;;4.27;1.47;;;;;;;;;;5025184;28;20118;-77
2023/03/19 07:07:32;;;;;;;3.87;1.60;;;;;;;;;;5011515;28;20362;-79
2023/03/19 07:10:01;;;;;;;3.50;1.43;;;;;;;;;;5008449;28;20033;-77
2023/03/19 07:12:27;;;;;;;4.70;1.50;;;;;;;;;;5007998;28;21567;-78
2023/03/19 07:14:55;;;;;;;1.97;1.33;;;;;;;;;;5011323;28;20083;-77
2023/03/19 07:17:24;;;;;;;1.67;1.40;;;;;;;;;;5006192;28;20117;-78
2023/03/19 07:19:50;;;;;;;3.47;1.53;;;;;;;;;;5010253;28;20026;-76
2023/03/19 07:22:16;;;;;;;3.17;1.33;;;;;;;;;;5005910;28;20033;-78
2023/03/19 07:24:44;;;;;;;3.97;1.80;;;;;;;;;;5004473;28;20025;-77
2023/03/19 07:27:11;;;;;;;4.03;1.67;;;;;;;;;;5024874;28;20038;-78
2023/03/19 07:29:39;;;;;;;2.10;1.20;;;;;;;;;;5011225;28;20037;-78
2023/03/19 07:32:05;;;;;;;6.97;1.90;;;;;;;;;;5010719;28;20120;-76
2023/03/19 07:34:31;;;;;;;4.67;1.80;;;;;;;;;;5024220;28;20033;-77
2023/03/19 07:37:00;;;;;;;2.53;1.70;;;;;;;;;;5011204;28;20611;-78
2023/03/19 07:39:28;;;;;;;3.37;2.53;;;;;;;;;;5011296;28;20094;-77
2023/03/19 07:41:54;;;;;;;1.97;1.43;;;;;;;;;;5006108;28;20029;-77
2023/03/19 07:44:20;;;;;;;4.07;1.77;;;;;;;;;;5024993;28;20044;-77
2023/03/19 07:46:46;;;;;;;3.73;1.40;;;;;;;;;;5005716;28;21583;-77
2023/03/19 07:49:15;;;;;;;3.17;1.53;;;;;;;;;;5014478;28;20453;-78
2023/03/19 07:51:41;;;;;;;2.37;1.87;;;;;;;;;;5030298;28;20496;-78
2023/03/19 07:54:09;;;;;;;2.80;1.80;;;;;;;;;;5028499;28;20033;-77
2023/03/19 07:56:35;;;;;;;6.73;3.20;;;;;;;;;;5030612;28;20041;-79
2023/03/19 07:59:04;;;;;;;4.80;2.00;;;;;;;;;;5014485;28;20061;-78
2023/03/19 08:01:33;;;;;;;6.80;3.43;;;;;;;;;;5032090;28;20052;-78
2023/03/19 08:04:01;;;;;;;3.27;1.80;;;;;;;;;;5028027;28;20030;-78
2023/03/19 08:06:28;;;;;;;2.70;1.50;;;;;;;;;;5015765;28;20120;-77
2023/03/19 08:08:54;;;;;;;4.63;2.20;;;;;;;;;;5026868;28;20078;-77
2023/03/19 08:11:21;;;;;;;5.20;3.13;;;;;;;;;;5028396;28;20037;-77
2023/03/19 08:13:47;;;;;;;2.67;1.90;;;;;;;;;;5027831;28;20030;-79
2023/03/19 08:16:13;;;;;;;4.13;1.53;;;;;;;;;;5013884;28;20068;-76
2023/03/19 08:18:39;;;;;;;3.00;1.70;;;;;;;;;;5008843;28;20037;-78
2023/03/19 08:21:06;;;;;;;2.53;1.52;;;;;;;;;;5010802;28;20037;-77
2023/03/19 08:23:32;;;;;;;2.50;1.57;;;;;;;;;;5012579;28;20026;-78
2023/03/19 08:25:58;;;;;;;3.50;1.57;;;;;;;;;;5012809;28;20033;-77
2023/03/19 08:28:24;;;;;;;2.07;1.63;;;;;;;;;;5025827;28;21678;-77
2023/03/19 08:30:50;;;;;;;3.47;1.80;;;;;;;;;;5012765;28;20033;-75
2023/03/19 08:33:16;;;;;;;2.00;1.53;;;;;;;;;;5027354;28;20077;-77
2023/03/19 08:35:44;;;;;;;2.33;1.50;;;;;;;;;;5023250;28;20017;-77
2023/03/19 08:38:10;;;;;;;3.27;1.90;;;;;;;;;;5011305;28;20029;-77
2023/03/19 08:40:37;;;;;;;4.07;1.83;;;;;;;;;;5013492;28;20029;-78
2023/03/19 08:43:06;;;;;;;3.57;1.87;;;;;;;;;;5026166;28;20057;-76
2023/03/19 08:45:32;;;;;;;3.40;1.93;;;;;;;;;;5013183;28;20030;-76
2023/03/19 08:47:58;;;;;;;2.73;2.10;;;;;;;;;;5009624;28;20134;-78
2023/03/19 08:50:24;;;;;;;4.27;1.97;;;;;;;;;;5027226;28;20409;-77
2023/03/19 08:52:50;;;;;;;2.53;1.90;;;;;;;;;;5023512;28;20029;-78
2023/03/19 08:55:18;;;;;;;4.27;2.23;;;;;;;;;;5014235;28;20021;-78
2023/03/19 08:57:44;;;;;;;3.03;2.20;;;;;;;;;;5032060;28;20029;-75
2023/03/19 09:00:13;;;;;;;2.70;2.10;;;;;;;;;;5036631;28;20030;-75
2023/03/19 09:02:39;;;;;;;2.67;1.90;;;;;;;;;;5038587;28;20017;-75
2023/03/19 09:05:06;;;;;;;2.70;1.87;;;;;;;;;;5031982;28;20034;-74
2023/03/19 09:07:32;;;;;;;3.53;1.90;;;;;;;;;;5017849;28;20044;-77
2023/03/19 09:09:58;;;;;;;3.77;2.33;;;;;;;;;;5019372;28;20112;-78
2023/03/19 09:12:24;;;;;;;4.97;2.43;;;;;;;;;;5029214;28;20438;-76
2023/03/19 09:14:50;;;;;;;3.47;2.50;;;;;;;;;;5025770;28;20109;-77
2023/03/19 09:17:17;;;;;;;3.60;2.17;;;;;;;;;;5033856;28;20021;-77
2023/03/19 09:19:43;;;;;;;3.90;2.83;;;;;;;;;;5031461;28;20030;-77
2023/03/19 09:22:09;;;;;;;4.13;2.33;;;;;;;;;;5018346;28;20041;-77
2023/03/19 09:24:35;;;;;;;3.03;2.10;;;;;;;;;;5030035;28;20025;-77
2023/03/19 09:27:01;;;;;;;3.93;2.30;;;;;;;;;;5009167;28;20050;-77
2023/03/19 09:29:27;;;;;;;2.87;2.33;;;;;;;;;;5028638;28;20018;-77
2023/03/19 09:31:54;;;;;;;3.83;2.33;;;;;;;;;;5019016;28;20079;-77
2023/03/19 09:34:20;;;;;;;3.23;2.17;;;;;;;;;;5034677;28;20026;-75
2023/03/19 09:36:46;;;;;;;3.23;2.43;;;;;;;;;;5033583;28;20142;-76
2023/03/19 09:39:12;;;;;;;3.17;2.60;;;;;;;;;;5018460;28;20532;-77
2023/03/19 09:41:44;;;;;;;3.37;2.43;;;;;;;;;;5007044;28;20098;-78
2023/03/19 09:44:12;;;;;;;2.47;2.28;;;;;;;;;;5014674;28;20026;-77
2023/03/19 09:46:45;;;;;;;3.20;2.27;;;;;;;;;;5027636;28;20128;-77
2023/03/19 09:49:31;;;;;;;2.50;2.13;;;;;;;;;;5008667;28;20040;-77
2023/03/19 09:51:57;;;;;;;3.10;2.08;;;;;;;;;;5031840;28;20026;-77
2023/03/19 09:54:29;;;;;;;3.05;2.10;;;;;;;;;;5018818;28;20099;-77
2023/03/19 09:56:57;;;;;;;2.47;2.20;;;;;;;;;;5010267;28;20014;-76
2023/03/19 09:59:24;;;;;;;2.75;2.33;;;;;;;;;;5035602;28;20104;-76
2023/03/19 10:01:58;;;;;;;3.45;2.50;;;;;;;;;;5035432;28;20078;-77
2023/03/19 10:04:24;;;;;;;3.50;2.40;;;;;;;;;;5027634;28;20071;-78
2023/03/19 10:06:53;;;;;;;3.45;1.60;;;;;;;;;;5030683;28;20021;-77
2023/03/19 10:09:28;;;;;;;5.03;3.17;;;;;;;;;;5029953;28;20104;-77
2023/03/19 10:11:56;;;;;;;3.45;1.75;;;;;;;;;;5024527;28;20041;-77
2023/03/19 10:14:34;;;;;;;3.58;2.38;;;;;;;;;;5032991;28;20105;-77
2023/03/19 10:17:03;;;;;;;5.10;2.22;;;;;;;;;;5026971;28;20036;-78
2023/03/19 10:19:39;;;;;;;2.97;2.15;;;;;;;;;;5032791;28;20044;-76
2023/03/19 10:22:07;;;;;;;5.00;2.20;;;;;;;;;;5034086;28;20047;-78
2023/03/19 10:24:44;;;;;;;5.45;3.35;;;;;;;;;;5033389;28;20740;-78
2023/03/19 10:27:15;;;;;;;4.88;2.70;;;;;;;;;;5031146;28;20034;-78
2023/03/19 10:29:42;;;;;;;2.33;1.67;;;;;;;;;;5025287;28;20033;-77
2023/03/19 10:32:18;;;;;;;4.07;2.67;;;;;;;;;;5024126;28;20018;-77
2023/03/19 10:34:49;;;;;;;3.70;1.80;;;;;;;;;;5029399;28;20067;-78
2023/03/19 10:37:15;;;;;;;3.92;1.85;;;;;;;;;;5039649;28;20060;-78
2023/03/19 10:39:43;;;;;;;1.33;1.15;;;;;;;;;;5027213;28;20092;-77
2023/03/19 10:42:22;;;;;;;3.15;1.65;;;;;;;;;;5033994;28;20021;-77
2023/03/19 10:44:53;;;;;;;2.20;1.50;;;;;;;;;;5031422;28;20025;-78
2023/03/19 10:47:21;;;;;;;2.25;1.60;;;;;;;;;;5017248;28;20026;-78
2023/03/19 10:49:49;;;;;;;2.08;1.30;;;;;;;;;;5034171;28;20038;-77
2023/03/19 10:52:30;;;;;;;2.50;1.50;;;;;;;;;;5030326;28;20037;-78
2023/03/19 10:55:00;;;;;;;1.95;1.35;;;;;;;;;;5022778;28;20025;-77
2023/03/19 10:57:28;;;;;;;4.38;2.05;;;;;;;;;;5030899;28;20104;-78
2023/03/19 10:59:54;;;;;;;2.72;1.58;;;;;;;;;;5001657;28;20037;-77
2023/03/19 11:02:22;;;;;;;2.03;1.63;;;;;;;;;;5026602;28;20438;-77
2023/03/19 11:04:49;;;;;;;3.42;1.73;;;;;;;;;;5030676;28;20032;-77
2023/03/19 11:07:18;;;;;;;3.20;1.73;;;;;;;;;;5032750;28;20079;-77
2023/03/19 11:09:48;;;;;;;2.50;1.38;;;;;;;;;;5017939;28;20091;-77
2023/03/19 11:12:16;;;;;;;2.83;2.00;;;;;;;;;;5025079;28;20050;-77
2023/03/19 11:14:45;;;;;;;2.30;1.10;;;;;;;;;;5011680;28;20033;-77
2023/03/19 11:17:20;;;;;;;1.80;1.23;;;;;;;;;;5032316;28;20038;-77
2023/03/19 11:19:54;;;;;;;1.58;1.20;;;;;;;;;;5015460;28;20405;-78
2023/03/19 11:22:21;;;;;;;2.55;1.52;;;;;;;;;;5020543;28;20038;-78
2023/03/19 11:24:53;;;;;;;1.65;1.15;;;;;;;;;;5017576;28;20029;-77
2023/03/19 11:27:27;;;;;;;1.88;1.30;;;;;;;;;;5027678;28;20121;-78
2023/03/19 11:29:55;;;;;;;2.45;1.35;;;;;;;;;;5027288;28;20041;-77
2023/03/19 11:32:50;;;;;;;4.95;1.77;;;;;;;;;;5030459;28;20467;-78
2023/03/19 11:35:21;;;;;;;2.63;1.75;;;;;;;;;;5016584;28;20048;-77
2023/03/19 11:38:10;;;;;;;2.45;1.70;;;;;;;;;;5016452;28;20017;-79
2023/03/19 11:40:42;;;;;;;3.03;1.17;;;;;;;;;;5030861;28;20013;-79
2023/03/19 11:43:08;;;;;;;;;;;;;;;;;;5031673;28;20032;-79
2023/03/19 11:45:38;;;;;;;2.63;1.50;;;;;;;;;;5022037;28;19905;-79
2023/03/19 11:48:16;;;;;;;1.73;1.00;;;;;;;;;;5021012;28;20025;-78
2023/03/19 11:51:00;;;;;;;3.53;1.00;;;;;;;;;;5022038;28;20037;-79
2023/03/19 11:53:50;;;;;;;1.65;0.85;;;;;;;;;;5030617;28;20034;-79
2023/03/19 11:56:35;;;;;;;3.67;0.75;;;;;;;;;;5021854;28;20099;-79
2023/03/19 11:59:22;;;;;;;1.65;1.02;;;;;;;;;;5017606;28;20040;-78
2023/03/19 12:01:57;;;;;;;1.85;0.77;;;;;;;;;;5013668;28;20036;-78
2023/03/19 12:04:34;;;;;;;0.93;0.77;;;;;;;;;;5022834;28;20030;-78
2023/03/19 12:07:05;;;;;;;1.33;0.60;;;;;;;;;;5030946;28;20030;-79
2023/03/19 12:09:31;;;;;;;0.87;0.73;;;;;;;;;;5018127;28;20085;-79
2023/03/19 12:11:57;;;;;;;0.85;0.60;;;;;;;;;;5018783;28;20450;-79
2023/03/19 12:14:49;;;;;;;0.70;0.47;;;;;;;;;;5009490;28;20353;-79
2023/03/19 12:17:15;;;;;;;2.53;0.90;;;;;;;;;;4990534;28;20034;-79
2023/03/19 12:19:41;;;;;;;0.75;0.70;;;;;;;;;;5016126;28;20040;-79
2023/03/19 12:22:23;;;;;;;1.58;0.80;;;;;;;;;;5023643;28;20099;-79
2023/03/19 12:24:58;;;;;;;1.63;0.93;;;;;;;;;;5028151;28;20026;-78
2023/03/19 12:27:36;;;;;;;1.73;1.10;;;;;;;;;;5002805;28;20036;-77
2023/03/19 12:30:08;;;;;;;3.63;1.92;;;;;;;;;;5010630;28;20022;-78
2023/03/19 12:32:41;;;;;;;3.53;1.13;;;;;;;;;;5023415;28;20072;-78
2023/03/19 12:35:27;;;;;;;3.60;0.95;;;;;;;;;;5040824;28;20025;-78
2023/03/19 12:37:58;;;;;;;2.03;1.00;;;;;;;;;;5012538;28;20034;-78
2023/03/19 12:40:36;;;;;;;2.20;1.15;;;;;;;;;;5011693;28;20052;-78
2023/03/19 12:43:08;;;;;;;1.17;0.90;;;;;;;;;;5033681;28;20017;-78
2023/03/19 12:45:39;;;;;;;3.80;1.23;;;;;;;;;;5017582;28;20052;-78
2023/03/19 12:48:15;;;;;;;2.00;1.47;;;;;;;;;;5020305;28;20072;-78
2023/03/19 12:50:43;;;;;;;1.35;1.17;;;;;;;;;;5034434;28;20083;-78
2023/03/19 12:53:35;;;;;;;2.35;1.50;;;;;;;;;;5012237;28;20037;-77
2023/03/19 12:56:07;;;;;;;2.00;1.42;;;;;;;;;;4997711;28;20076;-78
2023/03/19 12:58:38;;;;;;;2.95;1.67;;;;;;;;;;5028819;28;20124;-78
2023/03/19 13:01:13;;;;;;;2.00;1.20;;;;;;;;;;5026014;28;20029;-78
2023/03/19 13:03:43;;;;;;;3.80;1.58;;;;;;;;;;5024489;28;20632;-76
2023/03/19 13:06:17;;;;;;;2.25;1.30;;;;;;;;;;5022018;28;20128;-75
2023/03/19 13:08:43;;;;;;;3.10;1.83;;;;;;;;;;5009837;28;20037;-74
2023/03/19 13:11:15;;;;;;;1.58;1.30;;;;;;;;;;5023638;28;20043;-79
2023/03/19 13:13:56;;;;;;;3.30;2.05;;;;;;;;;;5023793;28;20045;-78
2023/03/19 13:16:25;;;;;;;3.15;1.77;;;;;;;;;;5026162;28;20017;-76
2023/03/19 13:19:02;;;;;;;1.90;0.88;;;;;;;;;;5028073;28;20187;-79
2023/03/19 13:21:30;;;;;;;5.10;2.75;;;;;;;;;;5010222;28;20033;-79
2023/03/19 13:24:15;;;;;;;1.48;1.02;;;;;;;;;;5023701;28;20045;-79
2023/03/19 13:26:41;;;;;;;1.15;0.70;;;;;;;;;;5024085;28;20191;-78
2023/03/19 13:29:12;;;;;;;1.77;0.85;;;;;;;;;;5012698;28;20044;-78
2023/03/19 13:31:38;;;;;;;1.23;0.70;;;;;;;;;;5007030;28;20541;-76
2023/03/19 13:34:06;;;;;;;1.95;0.82;;;;;;;;;;5018588;28;20904;-76
2023/03/19 13:36:35;;;;;;;1.10;0.75;;;;;;;;;;5007443;28;20030;-74
2023/03/19 13:39:08;;;;;;;2.28;1.17;;;;;;;;;;5008447;28;20056;-76
2023/03/19 13:41:35;;;;;;;3.45;1.63;;;;;;;;;;5004677;28;20044;-75
2023/03/19 13:44:22;;;;;;;1.05;0.70;;;;;;;;;;5019420;28;20125;-77
2023/03/19 13:46:48;;;;;;;2.22;1.15;;;;;;;;;;4985765;28;20040;-78
2023/03/19 13:49:32;;;;;;;3.20;0.88;;;;;;;;;;5012476;28;20029;-78
2023/03/19 13:52:18;;;;;;;1.40;0.80;;;;;;;;;;5023534;28;20167;-77
2023/03/19 13:54:45;;;;;;;1.35;0.85;;;;;;;;;;4980772;28;20533;-77
2023/03/19 13:57:13;;;;;;;1.30;0.90;;;;;;;;;;5023607;28;20069;-78
2023/03/19 13:59:43;;;;;;;1.10;0.70;;;;;;;;;;5025331;28;20064;-77
2023/03/19 14:02:21;;;;;;;2.38;0.90;;;;;;;;;;5010606;28;20033;-78
2023/03/19 14:05:06;;;;;;;2.92;1.60;;;;;;;;;;5023040;28;20378;-77
2023/03/19 14:07:39;;;;;;;2.65;1.20;;;;;;;;;;5026784;28;20047;-78
2023/03/19 14:10:14;;;;;;;2.03;1.02;;;;;;;;;;5009987;28;20402;-77
2023/03/19 14:12:41;;;;;;;1.20;0.73;;;;;;;;;;5010827;28;20117;-76
2023/03/19 14:15:10;;;;;;;2.33;0.88;;;;;;;;;;5011122;28;20033;-77
2023/03/19 14:17:43;;;;;;;2.47;1.83;;;;;;;;;;5025270;28;20112;-78
2023/03/19 14:20:14;;;;;;;5.80;2.30;;;;;;;;;;5011494;28;20080;-75
2023/03/19 14:22:55;;;;;;;2.78;1.77;;;;;;;;;;5004820;28;20029;-77
2023/03/19 14:25:22;;;;;;;3.85;2.60;;;;;;;;;;5011716;28;20040;-78
2023/03/19 14:27:49;;;;;;;4.03;2.20;;;;;;;;;;5023350;28;20037;-77
2023/03/19 14:30:24;;;;;;;3.47;2.55;;;;;;;;;;5023644;28;20036;-77
2023/03/19 14:32:51;;;;;;;3.30;2.08;;;;;;;;;;5010730;28;20029;-78
2023/03/19 14:35:22;;;;;;;3.25;2.20;;;;;;;;;;5026861;28;20085;-77
2023/03/19 14:37:49;;;;;;;4.28;2.35;;;;;;;;;;5008989;28;20029;-77
2023/03/19 14:40:17;;;;;;;3.38;2.50;;;;;;;;;;5009761;28;20017;-77
2023/03/19 14:43:01;;;;;;;2.87;2.10;;;;;;;;;;5026628;28;20071;-78
2023/03/19 14:45:52;;;;;;;3.83;2.33;;;;;;;;;;5007885;28;20447;-77
2023/03/19 14:48:21;;;;;;;2.33;2.00;;;;;;;;;;5025414;28;20030;-78
2023/03/19 14:50:47;;;;;;;4.47;2.57;;;;;;;;;;5026054;28;20029;-79